Time;durP1;ratioP1;P1;durP2;ratioP2;P2;SDS_P1;SDS_P2;PMS_P1;PMS_P2;Temp;Humidity;BMP_temperature;BMP_pressure;BME280_temperature;BME280_humidity;BME280_pressure;Samples;Min_cycle;Max_cycle;Signal;HPM_P1;HPM_P2
2022/01/10 00:01:06;;;;;;;8.73;3.88;;;;;;;;;;5031630;28;20079;-65
2022/01/10 00:03:32;;;;;;;6.60;3.07;;;;;;;;;;5046721;28;20021;-65
2022/01/10 00:05:58;;;;;;;6.65;1.90;;;;;;;;;;5034779;28;20025;-66
2022/01/10 00:08:24;;;;;;;1.27;0.85;;;;;;;;;;5036590;28;20048;-65
2022/01/10 00:10:51;;;;;;;7.43;3.85;;;;;;;;;;5044964;28;20029;-65
2022/01/10 00:13:17;;;;;;;4.20;2.00;;;;;;;;;;5032919;28;20030;-65
2022/01/10 00:15:44;;;;;;;1.70;0.77;;;;;;;;;;5035872;28;20037;-65
2022/01/10 00:18:10;;;;;;;1.80;0.70;;;;;;;;;;5036130;28;20080;-66
2022/01/10 00:20:36;;;;;;;9.15;4.50;;;;;;;;;;5037349;28;20056;-65
2022/01/10 00:23:03;;;;;;;9.43;4.53;;;;;;;;;;5035334;28;20072;-66
2022/01/10 00:25:28;;;;;;;7.55;3.45;;;;;;;;;;5033819;28;20041;-66
2022/01/10 00:27:55;;;;;;;8.13;3.40;;;;;;;;;;5032778;28;20518;-65
2022/01/10 00:30:25;;;;;;;5.47;1.80;;;;;;;;;;5037638;28;20040;-65
2022/01/10 00:32:51;;;;;;;3.65;1.98;;;;;;;;;;5035214;28;20048;-66
2022/01/10 00:35:18;;;;;;;3.70;1.55;;;;;;;;;;5034910;28;20029;-66
2022/01/10 00:37:44;;;;;;;2.45;0.98;;;;;;;;;;5033629;28;20049;-66
2022/01/10 00:40:11;;;;;;;1.88;0.75;;;;;;;;;;5031221;28;20041;-66
2022/01/10 00:42:38;;;;;;;1.30;0.60;;;;;;;;;;5036546;28;20108;-66
2022/01/10 00:45:13;;;;;;;3.45;1.70;;;;;;;;;;5035824;28;20017;-65
2022/01/10 00:47:39;;;;;;;4.25;2.05;;;;;;;;;;5035026;28;20021;-66
2022/01/10 00:50:05;;;;;;;4.38;2.40;;;;;;;;;;5034174;28;20041;-66
2022/01/10 00:52:31;;;;;;;6.18;2.28;;;;;;;;;;5034086;28;20021;-65
2022/01/10 00:54:57;;;;;;;5.13;2.40;;;;;;;;;;5032035;28;20037;-66
2022/01/10 00:57:23;;;;;;;3.10;1.63;;;;;;;;;;5037043;28;20029;-66
2022/01/10 00:59:49;;;;;;;4.70;1.30;;;;;;;;;;5034499;28;20036;-66
2022/01/10 01:02:15;;;;;;;4.60;1.75;;;;;;;;;;5033112;28;20029;-66
2022/01/10 01:04:41;;;;;;;2.90;1.45;;;;;;;;;;5033771;28;20025;-66
2022/01/10 01:07:07;;;;;;;1.13;0.77;;;;;;;;;;5029938;28;20055;-66
2022/01/10 01:09:33;;;;;;;0.98;0.70;;;;;;;;;;5037772;28;20099;-66
2022/01/10 01:12:13;;;;;;;4.78;1.63;;;;;;;;;;5034470;28;20477;-66
2022/01/10 01:17:32;;;;;;;4.38;1.73;;;;;;;;;;5034024;28;20026;-66
2022/01/10 01:25:12;;;;;;;1.08;0.55;;;;;;;;;;5016016;28;20504;-66
2022/01/10 01:27:40;;;;;;;0.82;0.60;;;;;;;;;;5035633;28;20100;-66
2022/01/10 01:30:06;;;;;;;0.93;0.30;;;;;;;;;;5034596;28;20037;-66
2022/01/10 01:32:32;;;;;;;0.40;0.32;;;;;;;;;;5033946;28;20025;-66
2022/01/10 01:35:04;;;;;;;0.40;0.40;;;;;;;;;;5033990;28;20033;-66
2022/01/10 01:37:30;;;;;;;1.65;1.00;;;;;;;;;;5032621;28;20044;-66
2022/01/10 01:39:57;;;;;;;3.10;1.23;;;;;;;;;;5041658;28;20032;-66
2022/01/10 01:42:34;;;;;;;3.60;1.20;;;;;;;;;;5036251;28;20021;-66
2022/01/10 01:45:01;;;;;;;1.52;0.98;;;;;;;;;;5034114;28;20040;-66
2022/01/10 01:47:27;;;;;;;2.65;1.15;;;;;;;;;;5033436;28;20021;-66
2022/01/10 01:49:53;;;;;;;2.78;1.05;;;;;;;;;;5033318;28;20403;-66
2022/01/10 01:52:19;;;;;;;2.42;0.80;;;;;;;;;;5031234;28;20032;-66
2022/01/10 01:54:45;;;;;;;1.60;0.82;;;;;;;;;;5033680;28;20068;-66
2022/01/10 01:57:11;;;;;;;1.27;0.88;;;;;;;;;;5033624;28;20025;-66
2022/01/10 01:59:37;;;;;;;1.83;0.80;;;;;;;;;;5033489;28;20037;-66
2022/01/10 02:02:03;;;;;;;0.90;0.63;;;;;;;;;;5032963;28;20100;-66
2022/01/10 02:04:30;;;;;;;3.22;1.00;;;;;;;;;;5032188;28;20059;-66
2022/01/10 02:06:56;;;;;;;1.48;0.75;;;;;;;;;;5031348;28;20045;-66
2022/01/10 02:09:22;;;;;;;1.55;0.80;;;;;;;;;;5044190;28;20046;-66
2022/01/10 02:11:48;;;;;;;1.83;0.95;;;;;;;;;;5035027;28;20436;-66
2022/01/10 02:14:17;;;;;;;2.20;1.13;;;;;;;;;;5032486;28;20075;-66
2022/01/10 02:16:45;;;;;;;1.85;1.08;;;;;;;;;;5030612;28;20188;-66
2022/01/10 02:19:12;;;;;;;2.30;0.60;;;;;;;;;;5030518;28;20025;-66
2022/01/10 02:21:39;;;;;;;1.48;0.60;;;;;;;;;;5035002;28;20503;-66
2022/01/10 02:24:06;;;;;;;0.80;0.45;;;;;;;;;;5034061;28;20040;-66
2022/01/10 02:26:33;;;;;;;1.15;0.50;;;;;;;;;;5031343;28;20034;-66
2022/01/10 02:28:59;;;;;;;1.30;0.38;;;;;;;;;;5032717;28;20459;-66
2022/01/10 02:31:25;;;;;;;0.65;0.40;;;;;;;;;;5031198;28;20037;-66
2022/01/10 02:33:56;;;;;;;1.17;0.57;;;;;;;;;;5032280;28;20036;-67
2022/01/10 02:36:27;;;;;;;1.17;0.57;;;;;;;;;;5034866;28;20053;-66
2022/01/10 02:38:54;;;;;;;1.60;0.98;;;;;;;;;;5032589;28;20030;-66
2022/01/10 02:41:30;;;;;;;1.08;0.88;;;;;;;;;;5031779;28;20021;-66
2022/01/10 02:43:57;;;;;;;1.70;0.80;;;;;;;;;;5032350;28;20055;-66
2022/01/10 02:46:24;;;;;;;2.00;0.90;;;;;;;;;;5030787;28;20493;-66
2022/01/10 02:48:50;;;;;;;1.85;1.00;;;;;;;;;;5032281;28;20045;-66
2022/01/10 02:51:16;;;;;;;2.45;0.60;;;;;;;;;;5034056;28;20025;-67
2022/01/10 02:53:42;;;;;;;1.95;0.95;;;;;;;;;;5032601;28;20030;-66
2022/01/10 02:56:08;;;;;;;1.50;0.88;;;;;;;;;;5032418;28;20476;-66
2022/01/10 02:58:35;;;;;;;3.78;1.40;;;;;;;;;;5030802;28;20029;-66
2022/01/10 03:01:01;;;;;;;3.95;1.45;;;;;;;;;;5029114;28;20528;-66
2022/01/10 03:03:29;;;;;;;1.20;0.85;;;;;;;;;;5035764;28;20032;-67
2022/01/10 03:05:55;;;;;;;1.05;0.85;;;;;;;;;;5032213;28;20488;-66
2022/01/10 03:08:21;;;;;;;1.17;0.60;;;;;;;;;;5032479;28;20115;-67
2022/01/10 03:10:47;;;;;;;1.40;0.90;;;;;;;;;;5032675;28;20493;-67
2022/01/10 03:13:13;;;;;;;1.35;0.77;;;;;;;;;;5028390;28;20028;-67
2022/01/10 03:15:39;;;;;;;0.57;0.45;;;;;;;;;;5034090;28;20030;-67
2022/01/10 03:18:05;;;;;;;1.40;0.90;;;;;;;;;;5033605;28;20381;-66
2022/01/10 03:20:31;;;;;;;1.52;1.00;;;;;;;;;;5034728;28;20112;-66
2022/01/10 03:22:57;;;;;;;1.77;1.05;;;;;;;;;;5030397;28;20052;-66
2022/01/10 03:25:23;;;;;;;1.35;0.70;;;;;;;;;;5030538;28;20117;-67
2022/01/10 03:27:49;;;;;;;1.15;0.55;;;;;;;;;;5033032;28;20032;-67
2022/01/10 03:30:16;;;;;;;2.42;1.00;;;;;;;;;;5037584;28;20048;-66
2022/01/10 03:32:43;;;;;;;2.22;0.95;;;;;;;;;;5036220;28;20099;-67
2022/01/10 03:35:09;;;;;;;1.65;0.80;;;;;;;;;;5036357;28;20100;-67
2022/01/10 03:37:35;;;;;;;3.50;0.95;;;;;;;;;;5035526;28;20049;-67
2022/01/10 03:40:01;;;;;;;1.42;0.90;;;;;;;;;;5032445;28;20176;-67
2022/01/10 03:42:27;;;;;;;3.58;0.88;;;;;;;;;;5039410;28;20112;-66
2022/01/10 03:44:53;;;;;;;1.80;1.00;;;;;;;;;;5035489;28;20060;-67
2022/01/10 03:47:21;;;;;;;1.20;0.70;;;;;;;;;;5036115;28;20052;-67
2022/01/10 03:49:47;;;;;;;1.17;0.67;;;;;;;;;;5036083;28;20033;-67
2022/01/10 03:52:13;;;;;;;1.98;0.70;;;;;;;;;;5032248;28;20065;-67
2022/01/10 03:54:39;;;;;;;2.00;0.82;;;;;;;;;;5037666;28;20052;-67
2022/01/10 03:57:05;;;;;;;1.63;0.60;;;;;;;;;;5036651;28;20112;-67
2022/01/10 03:59:32;;;;;;;1.73;0.50;;;;;;;;;;5035348;28;20429;-66
2022/01/10 04:01:58;;;;;;;0.68;0.50;;;;;;;;;;5035528;28;20030;-66
2022/01/10 04:04:24;;;;;;;1.30;0.57;;;;;;;;;;5033905;28;20026;-66
2022/01/10 04:06:50;;;;;;;1.50;0.80;;;;;;;;;;5035270;28;20487;-66
2022/01/10 04:09:19;;;;;;;1.48;0.60;;;;;;;;;;5036705;28;20038;-66
2022/01/10 04:11:45;;;;;;;1.45;1.00;;;;;;;;;;5034930;28;20014;-66
2022/01/10 04:14:11;;;;;;;1.05;0.68;;;;;;;;;;5035470;28;20029;-67
2022/01/10 04:16:37;;;;;;;0.80;0.50;;;;;;;;;;5035341;28;20032;-67
2022/01/10 04:19:03;;;;;;;0.95;0.68;;;;;;;;;;5032757;28;20452;-67
2022/01/10 04:21:29;;;;;;;1.05;0.50;;;;;;;;;;5034211;28;20374;-67
2022/01/10 04:23:55;;;;;;;2.58;0.65;;;;;;;;;;5035277;28;20080;-67
2022/01/10 04:26:21;;;;;;;0.50;0.40;;;;;;;;;;5034770;28;20400;-67
2022/01/10 04:28:47;;;;;;;0.82;0.60;;;;;;;;;;5035241;28;20033;-68
2022/01/10 04:31:13;;;;;;;1.17;0.40;;;;;;;;;;5031996;28;20032;-67
2022/01/10 04:33:39;;;;;;;1.00;0.63;;;;;;;;;;5035852;28;20473;-69
2022/01/10 04:36:05;;;;;;;1.38;0.82;;;;;;;;;;5035923;28;20082;-67
2022/01/10 04:38:31;;;;;;;1.17;0.60;;;;;;;;;;5034223;28;20053;-67
2022/01/10 04:40:57;;;;;;;1.00;0.77;;;;;;;;;;5034608;28;20481;-67
2022/01/10 04:43:23;;;;;;;1.13;0.60;;;;;;;;;;5032839;28;20018;-67
2022/01/10 04:45:49;;;;;;;0.85;0.38;;;;;;;;;;5034067;28;20021;-66
2022/01/10 04:48:17;;;;;;;3.17;0.90;;;;;;;;;;5031883;28;20037;-66
2022/01/10 04:51:10;;;;;;;0.80;0.47;;;;;;;;;;5032781;28;20041;-67
2022/01/10 04:53:30;;;;;;;2.42;0.75;;;;;;;;;;5031664;28;20025;-67
2022/01/10 04:55:56;;;;;;;1.67;0.50;;;;;;;;;;5031389;28;20468;-67
2022/01/10 04:58:23;;;;;;;1.20;0.43;;;;;;;;;;5032000;28;20096;-67
2022/01/10 05:00:53;;;;;;;0.85;0.60;;;;;;;;;;5048341;28;20021;-67
2022/01/10 05:03:19;;;;;;;1.23;0.60;;;;;;;;;;5033330;28;20090;-67
2022/01/10 05:05:45;;;;;;;1.27;0.57;;;;;;;;;;5034643;28;20492;-67
2022/01/10 05:08:12;;;;;;;0.70;0.60;;;;;;;;;;5034469;28;20029;-67
2022/01/10 05:10:38;;;;;;;0.63;0.40;;;;;;;;;;5034362;28;20025;-67
2022/01/10 05:13:04;;;;;;;0.80;0.40;;;;;;;;;;5030196;28;20087;-67
2022/01/10 05:15:30;;;;;;;1.10;0.57;;;;;;;;;;5037611;28;20033;-67
2022/01/10 05:17:56;;;;;;;0.90;0.50;;;;;;;;;;5032820;28;20030;-67
2022/01/10 05:20:22;;;;;;;2.88;0.40;;;;;;;;;;5036564;28;20447;-68
2022/01/10 05:22:48;;;;;;;0.45;0.20;;;;;;;;;;5033841;28;20052;-67
2022/01/10 05:25:14;;;;;;;0.30;0.30;;;;;;;;;;5030717;28;20080;-67
2022/01/10 05:27:40;;;;;;;2.40;0.40;;;;;;;;;;5034970;28;20029;-67
2022/01/10 05:30:06;;;;;;;2.35;1.05;;;;;;;;;;5037283;28;20049;-67
2022/01/10 05:32:32;;;;;;;2.00;0.73;;;;;;;;;;5033707;28;20363;-68
2022/01/10 05:34:58;;;;;;;1.02;0.60;;;;;;;;;;5031927;28;20493;-67
2022/01/10 05:37:24;;;;;;;0.93;0.60;;;;;;;;;;5031892;28;20092;-67
2022/01/10 05:39:50;;;;;;;1.95;0.90;;;;;;;;;;5032832;28;20467;-67
2022/01/10 05:42:19;;;;;;;1.52;0.90;;;;;;;;;;5045634;28;20059;-67
2022/01/10 05:44:45;;;;;;;1.48;1.00;;;;;;;;;;5035896;28;20022;-67
2022/01/10 05:47:11;;;;;;;1.35;1.00;;;;;;;;;;5033654;28;20028;-67
2022/01/10 05:49:45;;;;;;;2.00;1.15;;;;;;;;;;5032859;28;20396;-68
2022/01/10 05:52:11;;;;;;;1.55;0.90;;;;;;;;;;5030064;28;20026;-67
2022/01/10 05:54:37;;;;;;;0.77;0.38;;;;;;;;;;5035852;28;20045;-67
2022/01/10 05:57:03;;;;;;;2.78;0.90;;;;;;;;;;5034010;28;20033;-67
2022/01/10 05:59:31;;;;;;;0.95;0.50;;;;;;;;;;5033227;28;20075;-67
2022/01/10 06:01:57;;;;;;;1.92;0.95;;;;;;;;;;5033203;28;20040;-67
2022/01/10 06:04:23;;;;;;;2.92;1.38;;;;;;;;;;5031514;28;20425;-67
2022/01/10 06:06:49;;;;;;;2.72;1.23;;;;;;;;;;5032957;28;20036;-67
2022/01/10 06:09:15;;;;;;;2.13;1.30;;;;;;;;;;5034508;28;20452;-67
2022/01/10 06:11:41;;;;;;;1.92;1.00;;;;;;;;;;5033484;28;20021;-69
2022/01/10 06:14:08;;;;;;;0.75;0.40;;;;;;;;;;5033022;28;20108;-67
2022/01/10 06:16:35;;;;;;;6.85;3.03;;;;;;;;;;5032471;28;20024;-67
2022/01/10 06:19:01;;;;;;;2.53;0.80;;;;;;;;;;5030922;28;20026;-66
2022/01/10 06:21:26;;;;;;;0.40;0.40;;;;;;;;;;5035957;28;20495;-66
2022/01/10 06:23:52;;;;;;;1.55;1.25;;;;;;;;;;5031701;28;20029;-69
2022/01/10 06:26:18;;;;;;;4.38;2.08;;;;;;;;;;5032607;28;20104;-68
2022/01/10 06:28:44;;;;;;;4.45;2.00;;;;;;;;;;5033052;28;20120;-68
2022/01/10 06:31:10;;;;;;;2.63;1.15;;;;;;;;;;5028927;28;20038;-68
2022/01/10 06:33:36;;;;;;;4.63;2.05;;;;;;;;;;5034657;28;20032;-67
2022/01/10 06:36:02;;;;;;;2.22;1.30;;;;;;;;;;5029105;28;20025;-68
2022/01/10 06:38:29;;;;;;;2.15;1.20;;;;;;;;;;5032930;28;20462;-69
2022/01/10 06:40:55;;;;;;;11.25;4.07;;;;;;;;;;5031510;28;20116;-69
2022/01/10 06:43:21;;;;;;;1.85;0.85;;;;;;;;;;5029669;28;20152;-68
2022/01/10 06:45:47;;;;;;;4.90;1.98;;;;;;;;;;5030210;28;20025;-68
2022/01/10 06:48:12;;;;;;;3.65;2.05;;;;;;;;;;5034167;28;20088;-68
2022/01/10 06:50:39;;;;;;;3.33;1.73;;;;;;;;;;5030126;28;20396;-68
2022/01/10 06:53:06;;;;;;;3.70;2.10;;;;;;;;;;5029836;28;20086;-68
2022/01/10 06:55:32;;;;;;;5.23;1.77;;;;;;;;;;5029921;28;20078;-68
2022/01/10 06:57:58;;;;;;;2.05;1.25;;;;;;;;;;5029223;28;20030;-68
2022/01/10 07:00:24;;;;;;;2.33;1.35;;;;;;;;;;5031411;28;20022;-69
2022/01/10 07:02:50;;;;;;;3.67;1.73;;;;;;;;;;5028799;28;20108;-68
2022/01/10 07:05:16;;;;;;;4.15;2.30;;;;;;;;;;5029893;28;20120;-68
2022/01/10 07:07:42;;;;;;;7.07;2.10;;;;;;;;;;5030048;28;20029;-68
2022/01/10 07:10:08;;;;;;;3.60;1.30;;;;;;;;;;5029731;28;20085;-68
2022/01/10 07:12:35;;;;;;;11.00;4.32;;;;;;;;;;5031489;28;20033;-68
2022/01/10 07:15:01;;;;;;;3.15;1.75;;;;;;;;;;5029885;28;20033;-68
2022/01/10 07:17:27;;;;;;;3.08;1.70;;;;;;;;;;5028423;28;20370;-68
2022/01/10 07:19:53;;;;;;;3.58;1.63;;;;;;;;;;5029297;28;20120;-68
2022/01/10 07:22:19;;;;;;;5.18;1.83;;;;;;;;;;5029941;28;20033;-68
2022/01/10 07:24:45;;;;;;;5.05;2.00;;;;;;;;;;5032391;28;20125;-68
2022/01/10 07:27:11;;;;;;;4.53;1.85;;;;;;;;;;5030046;28;20461;-68
2022/01/10 07:29:37;;;;;;;7.43;2.42;;;;;;;;;;5029713;28;20041;-68
2022/01/10 07:32:06;;;;;;;4.05;1.35;;;;;;;;;;5029525;28;20017;-67
2022/01/10 07:34:32;;;;;;;5.85;2.10;;;;;;;;;;5029480;28;20435;-68
2022/01/10 07:36:58;;;;;;;4.03;1.90;;;;;;;;;;5028475;28;20044;-68
2022/01/10 07:39:24;;;;;;;5.38;2.33;;;;;;;;;;5028725;28;20057;-67
2022/01/10 07:41:50;;;;;;;2.78;1.55;;;;;;;;;;5040903;28;20075;-66
2022/01/10 07:44:16;;;;;;;3.80;1.30;;;;;;;;;;5037529;28;20029;-66
2022/01/10 07:46:42;;;;;;;3.70;1.80;;;;;;;;;;5032662;28;20435;-69
2022/01/10 07:49:08;;;;;;;2.40;1.27;;;;;;;;;;5027440;28;20030;-69
2022/01/10 07:51:34;;;;;;;3.38;1.75;;;;;;;;;;5035409;28;20025;-69
2022/01/10 07:54:00;;;;;;;6.18;2.97;;;;;;;;;;5031952;28;20481;-66
2022/01/10 07:56:26;;;;;;;3.90;1.88;;;;;;;;;;5034104;28;20029;-68
2022/01/10 07:58:52;;;;;;;3.63;1.30;;;;;;;;;;5028465;28;20037;-69
2022/01/10 08:01:19;;;;;;;4.03;2.08;;;;;;;;;;5028890;28;20117;-67
2022/01/10 08:03:46;;;;;;;4.65;2.50;;;;;;;;;;5031499;28;20504;-67
2022/01/10 08:06:12;;;;;;;5.50;2.58;;;;;;;;;;5043714;28;20029;-67
2022/01/10 08:08:38;;;;;;;6.55;2.40;;;;;;;;;;5038086;28;20056;-67
2022/01/10 08:11:04;;;;;;;3.30;1.40;;;;;;;;;;5039977;28;20476;-67
2022/01/10 08:13:30;;;;;;;5.13;1.90;;;;;;;;;;5031254;28;20076;-67
2022/01/10 08:15:56;;;;;;;2.85;1.48;;;;;;;;;;5033129;28;23194;-67
2022/01/10 08:18:22;;;;;;;3.17;1.30;;;;;;;;;;5050955;28;20108;-67
2022/01/10 08:20:48;;;;;;;4.13;1.92;;;;;;;;;;5036752;28;20049;-67
2022/01/10 08:23:14;;;;;;;2.55;1.30;;;;;;;;;;5035356;28;20476;-67
2022/01/10 08:25:40;;;;;;;3.50;1.50;;;;;;;;;;5035324;28;20025;-67
2022/01/10 08:28:06;;;;;;;2.72;1.10;;;;;;;;;;5031131;28;20091;-67
2022/01/10 08:30:32;;;;;;;1.80;1.10;;;;;;;;;;5052024;28;20044;-67
2022/01/10 08:32:58;;;;;;;1.00;0.40;;;;;;;;;;5034714;28;20033;-67
2022/01/10 08:35:24;;;;;;;2.63;1.40;;;;;;;;;;5034875;28;20491;-67
2022/01/10 08:37:51;;;;;;;9.93;6.07;;;;;;;;;;5035078;28;20373;-67
2022/01/10 08:40:17;;;;;;;1.98;1.10;;;;;;;;;;5043276;28;20025;-67
2022/01/10 08:42:43;;;;;;;1.38;0.63;;;;;;;;;;5035859;28;20037;-67
2022/01/10 08:45:10;;;;;;;0.70;0.50;;;;;;;;;;5035915;28;20021;-67
2022/01/10 08:47:36;;;;;;;0.30;0.25;;;;;;;;;;5034486;28;20032;-67
2022/01/10 08:50:03;;;;;;;1.17;0.50;;;;;;;;;;5036876;28;20041;-67
2022/01/10 08:52:29;;;;;;;1.33;0.30;;;;;;;;;;5046057;28;20033;-67
2022/01/10 08:54:55;;;;;;;1.08;0.20;;;;;;;;;;5032613;28;20092;-67
2022/01/10 08:57:21;;;;;;;0.10;0.10;;;;;;;;;;5036493;28;20022;-67
2022/01/10 08:59:47;;;;;;;0.00;0.00;;;;;;;;;;5043996;28;20476;-67
2022/01/10 09:02:14;;;;;;;0.10;0.03;;;;;;;;;;5041031;28;20033;-67
2022/01/10 09:04:40;;;;;;;0.00;0.00;;;;;;;;;;5034485;28;20032;-67
2022/01/10 09:07:08;;;;;;;0.45;0.10;;;;;;;;;;5030027;28;20102;-67
2022/01/10 09:09:34;;;;;;;0.30;0.00;;;;;;;;;;5038810;28;20175;-67
2022/01/10 09:12:00;;;;;;;0.22;0.00;;;;;;;;;;5036864;28;20029;-67
2022/01/10 09:14:26;;;;;;;0.20;0.00;;;;;;;;;;5038831;28;20429;-68
2022/01/10 09:16:52;;;;;;;0.22;0.00;;;;;;;;;;5033738;28;20151;-67
2022/01/10 09:19:19;;;;;;;0.05;0.00;;;;;;;;;;5031219;28;20041;-68
2022/01/10 09:21:45;;;;;;;0.30;0.05;;;;;;;;;;5034744;28;20358;-67
2022/01/10 09:24:12;;;;;;;0.05;0.00;;;;;;;;;;5035171;28;20140;-67
2022/01/10 09:26:38;;;;;;;0.10;0.10;;;;;;;;;;5033688;28;20021;-67
2022/01/10 09:29:04;;;;;;;0.00;0.00;;;;;;;;;;5037576;28;20036;-66
2022/01/10 09:31:30;;;;;;;0.10;0.10;;;;;;;;;;5044978;28;20028;-67
2022/01/10 09:33:56;;;;;;;0.08;0.03;;;;;;;;;;5031697;28;20030;-67
2022/01/10 09:36:23;;;;;;;0.30;0.15;;;;;;;;;;5035963;28;20061;-67
2022/01/10 09:38:49;;;;;;;0.17;0.10;;;;;;;;;;5043166;28;20017;-66
2022/01/10 09:41:16;;;;;;;1.00;0.05;;;;;;;;;;5042336;28;20551;-66
2022/01/10 09:43:50;;;;;;;0.17;0.10;;;;;;;;;;5033856;28;20032;-67
2022/01/10 09:46:16;;;;;;;0.77;0.20;;;;;;;;;;5030092;28;20030;-67
2022/01/10 09:48:42;;;;;;;0.10;0.10;;;;;;;;;;5036857;28;20100;-67
2022/01/10 09:51:09;;;;;;;0.20;0.10;;;;;;;;;;5034852;28;20029;-67
2022/01/10 09:53:35;;;;;;;0.00;0.00;;;;;;;;;;5033676;28;20018;-66
2022/01/10 09:56:01;;;;;;;0.00;0.00;;;;;;;;;;5032937;28;20480;-66
2022/01/10 09:58:27;;;;;;;0.00;0.00;;;;;;;;;;5031761;28;20029;-66
2022/01/10 10:00:57;;;;;;;0.10;0.10;;;;;;;;;;5047882;28;20036;-66
2022/01/10 10:03:24;;;;;;;0.00;0.00;;;;;;;;;;5035513;28;20031;-66
2022/01/10 10:05:53;;;;;;;0.10;0.10;;;;;;;;;;5032997;28;20488;-66
2022/01/10 10:08:24;;;;;;;0.00;0.00;;;;;;;;;;5033569;28;20619;-66
2022/01/10 10:10:50;;;;;;;0.00;0.00;;;;;;;;;;5042935;28;20029;-66
2022/01/10 10:13:16;;;;;;;0.08;0.00;;;;;;;;;;5029044;28;20014;-66
2022/01/10 10:15:44;;;;;;;0.00;0.00;;;;;;;;;;5033896;28;20591;-66
2022/01/10 10:18:14;;;;;;;0.00;0.00;;;;;;;;;;5034612;28;20052;-67
2022/01/10 10:20:41;;;;;;;0.10;0.10;;;;;;;;;;5032939;28;20029;-66
2022/01/10 10:23:11;;;;;;;0.00;0.00;;;;;;;;;;5032785;28;20025;-66
2022/01/10 10:25:37;;;;;;;0.00;0.00;;;;;;;;;;5032476;28;20024;-65
2022/01/10 10:28:03;;;;;;;0.03;0.00;;;;;;;;;;5029094;28;20389;-65
2022/01/10 10:30:31;;;;;;;0.00;0.00;;;;;;;;;;5051387;28;20104;-65
2022/01/10 10:33:16;;;;;;;0.13;0.00;;;;;;;;;;5035271;28;20032;-65
2022/01/10 10:35:42;;;;;;;0.25;0.10;;;;;;;;;;5032547;28;20035;-68
2022/01/10 10:38:09;;;;;;;0.00;0.00;;;;;;;;;;5031308;28;20053;-65
2022/01/10 10:40:42;;;;;;;0.10;0.00;;;;;;;;;;5045285;28;20029;-65
2022/01/10 10:43:09;;;;;;;0.13;0.10;;;;;;;;;;5012976;28;20507;-65
2022/01/10 10:45:35;;;;;;;0.00;0.00;;;;;;;;;;5048261;28;20083;-67
2022/01/10 10:48:05;;;;;;;0.00;0.00;;;;;;;;;;5032490;28;20021;-67
2022/01/10 10:50:34;;;;;;;0.00;0.00;;;;;;;;;;5035045;28;20489;-68
2022/01/10 10:53:04;;;;;;;0.52;0.10;;;;;;;;;;5032243;28;20018;-69
2022/01/10 10:55:30;;;;;;;0.10;0.10;;;;;;;;;;5031377;28;20523;-69
2022/01/10 10:57:57;;;;;;;0.00;0.00;;;;;;;;;;5030362;28;20045;-67
2022/01/10 11:00:23;;;;;;;0.10;0.10;;;;;;;;;;5048847;28;20029;-68
2022/01/10 11:02:48;;;;;;;0.90;0.00;;;;;;;;;;5034550;28;20433;-63
2022/01/10 11:05:15;;;;;;;0.20;0.00;;;;;;;;;;5032319;28;20022;-64
2022/01/10 11:07:40;;;;;;;0.03;0.00;;;;;;;;;;5032106;28;20040;-65
2022/01/10 11:10:07;;;;;;;0.05;0.05;;;;;;;;;;5038907;28;20037;-65
2022/01/10 11:12:34;;;;;;;0.00;0.00;;;;;;;;;;5034886;28;20700;-65
2022/01/10 11:15:00;;;;;;;0.80;0.10;;;;;;;;;;5032435;28;20523;-65
2022/01/10 11:17:27;;;;;;;0.10;0.10;;;;;;;;;;5032057;28;20017;-65
2022/01/10 11:20:12;;;;;;;0.20;0.10;;;;;;;;;;5034763;28;20028;-66
2022/01/10 11:22:39;;;;;;;2.03;0.20;;;;;;;;;;5028032;28;20025;-66
2022/01/10 11:25:05;;;;;;;0.00;0.00;;;;;;;;;;5026074;28;20490;-65
2022/01/10 11:27:33;;;;;;;0.00;0.00;;;;;;;;;;5031941;28;20029;-66
2022/01/10 11:29:59;;;;;;;0.25;0.13;;;;;;;;;;5028586;28;20034;-63
2022/01/10 11:32:44;;;;;;;0.50;0.28;;;;;;;;;;5026574;28;20088;-70
2022/01/10 11:35:10;;;;;;;1.10;0.25;;;;;;;;;;5027328;28;20057;-70
2022/01/10 11:37:36;;;;;;;0.88;0.10;;;;;;;;;;5026649;28;20042;-70
2022/01/10 11:40:02;;;;;;;0.50;0.22;;;;;;;;;;5035593;28;20381;-71
2022/01/10 11:42:28;;;;;;;0.00;0.00;;;;;;;;;;5025904;28;20056;-67
2022/01/10 11:45:10;;;;;;;4.22;0.20;;;;;;;;;;5016681;28;20121;-67
2022/01/10 11:47:54;;;;;;;1.00;0.30;;;;;;;;;;5015841;28;20541;-68
2022/01/10 11:50:24;;;;;;;0.60;0.20;;;;;;;;;;5024515;28;20121;-69
2022/01/10 11:52:57;;;;;;;0.10;0.10;;;;;;;;;;5019394;28;20048;-72
2022/01/10 11:55:46;;;;;;;0.10;0.10;;;;;;;;;;5029380;28;20025;-71
2022/01/10 11:58:20;;;;;;;0.20;0.10;;;;;;;;;;5015101;28;20121;-72
2022/01/10 12:00:46;;;;;;;0.65;0.10;;;;;;;;;;5016519;28;20029;-72
2022/01/10 12:03:13;;;;;;;0.10;0.10;;;;;;;;;;5018228;28;20025;-72
2022/01/10 12:05:40;;;;;;;0.50;0.20;;;;;;;;;;5027416;28;20029;-67
2022/01/10 12:08:06;;;;;;;2.03;0.10;;;;;;;;;;5026400;28;20021;-71
2022/01/10 12:10:32;;;;;;;0.30;0.10;;;;;;;;;;5036587;28;20061;-67
2022/01/10 12:13:06;;;;;;;0.40;0.10;;;;;;;;;;5030749;28;20029;-73
2022/01/10 12:15:33;;;;;;;0.20;0.10;;;;;;;;;;5028020;28;20044;-74
2022/01/10 12:17:59;;;;;;;1.88;0.32;;;;;;;;;;5030797;28;20029;-75
2022/01/10 12:20:25;;;;;;;4.43;1.42;;;;;;;;;;5032682;28;20033;-75
2022/01/10 12:22:55;;;;;;;0.25;0.10;;;;;;;;;;5030111;28;20037;-74
2022/01/10 12:25:21;;;;;;;2.72;0.68;;;;;;;;;;5031486;28;20503;-75
2022/01/10 12:27:48;;;;;;;1.75;0.57;;;;;;;;;;5032343;28;20022;-75
2022/01/10 12:30:14;;;;;;;2.75;0.75;;;;;;;;;;5031939;28;20455;-70
2022/01/10 12:32:40;;;;;;;0.80;0.47;;;;;;;;;;5022265;28;20022;-66
2022/01/10 12:35:06;;;;;;;0.22;0.10;;;;;;;;;;5019067;28;20449;-75
2022/01/10 12:37:32;;;;;;;0.30;0.20;;;;;;;;;;5018977;28;20046;-74
2022/01/10 12:39:58;;;;;;;1.65;0.95;;;;;;;;;;5032454;28;20087;-75
2022/01/10 12:42:27;;;;;;;0.38;0.30;;;;;;;;;;5032486;28;20022;-74
2022/01/10 12:44:54;;;;;;;0.20;0.20;;;;;;;;;;5031571;28;20096;-74
2022/01/10 12:47:20;;;;;;;0.10;0.10;;;;;;;;;;5030861;28;20021;-75
2022/01/10 12:49:47;;;;;;;0.20;0.10;;;;;;;;;;5032731;28;20458;-74
2022/01/10 12:52:14;;;;;;;0.60;0.25;;;;;;;;;;5030880;28;20022;-75
2022/01/10 12:54:40;;;;;;;1.10;0.35;;;;;;;;;;5036222;28;20049;-75
2022/01/10 12:57:07;;;;;;;0.32;0.20;;;;;;;;;;5035713;28;20021;-75
2022/01/10 12:59:35;;;;;;;0.40;0.10;;;;;;;;;;5043274;28;20036;-76
2022/01/10 13:02:01;;;;;;;0.90;0.10;;;;;;;;;;5042448;28;20030;-75
2022/01/10 13:04:29;;;;;;;0.10;0.10;;;;;;;;;;5040204;28;20033;-75
2022/01/10 13:06:55;;;;;;;0.60;0.30;;;;;;;;;;5032825;28;20025;-75
2022/01/10 13:09:21;;;;;;;1.05;0.20;;;;;;;;;;5033417;28;20033;-75
2022/01/10 13:12:00;;;;;;;0.30;0.20;;;;;;;;;;5031700;28;20018;-75
2022/01/10 13:14:27;;;;;;;0.22;0.15;;;;;;;;;;5034330;28;20053;-75
2022/01/10 13:17:01;;;;;;;0.35;0.20;;;;;;;;;;5034168;28;20025;-75
2022/01/10 13:19:28;;;;;;;0.82;0.57;;;;;;;;;;5034698;28;20507;-75
2022/01/10 13:21:55;;;;;;;1.90;0.47;;;;;;;;;;5032667;28;20026;-75
2022/01/10 13:24:22;;;;;;;0.50;0.27;;;;;;;;;;5036343;28;20030;-75
2022/01/10 13:27:19;;;;;;;0.20;0.10;;;;;;;;;;5034215;28;20100;-75
2022/01/10 13:29:49;;;;;;;0.10;0.10;;;;;;;;;;5042456;28;20114;-75
2022/01/10 13:32:18;;;;;;;0.80;0.10;;;;;;;;;;5040225;28;20270;-76
2022/01/10 13:34:45;;;;;;;0.28;0.10;;;;;;;;;;5033920;28;20028;-75
2022/01/10 13:37:13;;;;;;;0.40;0.10;;;;;;;;;;5028365;28;20136;-75
2022/01/10 13:39:39;;;;;;;0.47;0.10;;;;;;;;;;5046514;28;20025;-74
2022/01/10 13:42:06;;;;;;;0.10;0.10;;;;;;;;;;5036760;28;20022;-75
2022/01/10 13:44:33;;;;;;;0.10;0.10;;;;;;;;;;5033877;28;20025;-74
2022/01/10 13:47:06;;;;;;;0.00;0.00;;;;;;;;;;5033424;28;20033;-74
2022/01/10 13:49:34;;;;;;;0.90;0.20;;;;;;;;;;5042074;28;20463;-75
2022/01/10 13:52:07;;;;;;;0.10;0.10;;;;;;;;;;5030701;28;20105;-74
2022/01/10 13:54:33;;;;;;;0.30;0.10;;;;;;;;;;5030125;28;20064;-74
2022/01/10 13:57:13;;;;;;;0.10;0.10;;;;;;;;;;5030327;28;20037;-74
2022/01/10 13:59:39;;;;;;;0.90;0.32;;;;;;;;;;5042506;28;20029;-74
2022/01/10 14:02:05;;;;;;;1.83;0.32;;;;;;;;;;5040674;28;20456;-74
2022/01/10 14:04:34;;;;;;;0.82;0.50;;;;;;;;;;5032376;28;20079;-75
2022/01/10 14:07:01;;;;;;;2.22;1.08;;;;;;;;;;5030295;28;20068;-75
2022/01/10 14:09:31;;;;;;;1.30;1.17;;;;;;;;;;5035856;28;20365;-74
2022/01/10 14:11:57;;;;;;;0.30;0.10;;;;;;;;;;5032981;28;20024;-75
2022/01/10 14:14:27;;;;;;;0.28;0.20;;;;;;;;;;5033022;28;20053;-75
2022/01/10 14:16:55;;;;;;;0.20;0.20;;;;;;;;;;5033036;28;20037;-74
2022/01/10 14:19:24;;;;;;;0.60;0.17;;;;;;;;;;5033037;28;20014;-74
2022/01/10 14:21:50;;;;;;;0.05;0.05;;;;;;;;;;5032859;28;20037;-74
2022/01/10 14:24:19;;;;;;;0.10;0.08;;;;;;;;;;5034109;28;20049;-75
2022/01/10 14:26:45;;;;;;;0.15;0.15;;;;;;;;;;5033219;28;20024;-74
2022/01/10 14:29:11;;;;;;;0.47;0.10;;;;;;;;;;5037183;28;20041;-74
2022/01/10 14:31:38;;;;;;;2.50;0.65;;;;;;;;;;5042960;28;20033;-74
2022/01/10 14:34:04;;;;;;;0.82;0.50;;;;;;;;;;5029913;28;20041;-74
2022/01/10 14:36:30;;;;;;;5.07;2.05;;;;;;;;;;5030640;28;20048;-74
2022/01/10 14:38:56;;;;;;;6.53;2.00;;;;;;;;;;5030990;28;20036;-75
2022/01/10 14:41:25;;;;;;;0.98;0.50;;;;;;;;;;5029815;28;20072;-75
2022/01/10 14:43:51;;;;;;;0.13;0.10;;;;;;;;;;5033397;28;20125;-75
2022/01/10 14:46:17;;;;;;;1.08;0.50;;;;;;;;;;5043458;28;20022;-75
2022/01/10 14:48:47;;;;;;;3.53;2.00;;;;;;;;;;5034505;28;20029;-74
2022/01/10 14:51:13;;;;;;;1.90;0.85;;;;;;;;;;5032732;28;20390;-75